sensor_id;sensor_type;location;lat;lon;timestamp;temperature;humidity
21551;DHT22;10936;49.836;7.078;2022-08-03T05:02:35;27.70;92.20
21551;DHT22;10936;49.836;7.078;2022-08-03T05:05:02;27.70;92.20
21551;DHT22;10936;49.836;7.078;2022-08-03T05:07:28;27.70;92.20
21551;DHT22;10936;49.836;7.078;2022-08-03T05:09:53;27.80;92.20
21551;DHT22;10936;49.836;7.078;2022-08-03T05:12:19;27.80;92.20
21551;DHT22;10936;49.836;7.078;2022-08-03T05:14:45;27.80;92.20
21551;DHT22;10936;49.836;7.078;2022-08-03T05:17:10;27.80;92.20
21551;DHT22;10936;49.836;7.078;2022-08-03T05:19:36;27.80;92.20
21551;DHT22;10936;49.836;7.078;2022-08-03T05:22:02;27.80;92.20
21551;DHT22;10936;49.836;7.078;2022-08-03T05:24:27;27.90;92.20
21551;DHT22;10936;49.836;7.078;2022-08-03T05:26:53;27.80;92.20
21551;DHT22;10936;49.836;7.078;2022-08-03T05:29:19;27.90;92.20
21551;DHT22;10936;49.836;7.078;2022-08-03T05:31:44;27.90;92.20
21551;DHT22;10936;49.836;7.078;2022-08-03T05:34:10;27.90;92.20
21551;DHT22;10936;49.836;7.078;2022-08-03T05:36:35;27.90;92.20
21551;DHT22;10936;49.836;7.078;2022-08-03T05:39:01;27.90;92.20
21551;DHT22;10936;49.836;7.078;2022-08-03T05:41:27;27.90;92.60
21551;DHT22;10936;49.836;7.078;2022-08-03T05:43:53;28.00;92.20
21551;DHT22;10936;49.836;7.078;2022-08-03T05:46:20;28.00;92.20
21551;DHT22;10936;49.836;7.078;2022-08-03T05:48:46;28.00;92.20
21551;DHT22;10936;49.836;7.078;2022-08-03T05:51:12;28.00;92.20
21551;DHT22;10936;49.836;7.078;2022-08-03T05:53:39;28.00;92.20
21551;DHT22;10936;49.836;7.078;2022-08-03T05:56:04;28.10;92.20
21551;DHT22;10936;49.836;7.078;2022-08-03T05:58:30;28.00;92.10
21551;DHT22;10936;49.836;7.078;2022-08-03T06:00:56;28.10;92.20
21551;DHT22;10936;49.836;7.078;2022-08-03T06:03:21;28.10;92.30
21551;DHT22;10936;49.836;7.078;2022-08-03T06:05:47;28.10;92.20
21551;DHT22;10936;49.836;7.078;2022-08-03T06:08:13;28.10;92.20
21551;DHT22;10936;49.836;7.078;2022-08-03T06:10:38;28.10;92.20
21551;DHT22;10936;49.836;7.078;2022-08-03T06:13:04;28.10;92.10
21551;DHT22;10936;49.836;7.078;2022-08-03T06:15:29;28.10;92.10
21551;DHT22;10936;49.836;7.078;2022-08-03T06:17:58;28.20;92.10
21551;DHT22;10936;49.836;7.078;2022-08-03T06:20:24;28.20;92.10
21551;DHT22;10936;49.836;7.078;2022-08-03T06:22:50;28.20;92.10
21551;DHT22;10936;49.836;7.078;2022-08-03T06:25:16;28.20;92.10
21551;DHT22;10936;49.836;7.078;2022-08-03T06:27:42;28.20;92.10
21551;DHT22;10936;49.836;7.078;2022-08-03T06:30:09;28.20;92.00
21551;DHT22;10936;49.836;7.078;2022-08-03T06:32:39;28.20;92.00
21551;DHT22;10936;49.836;7.078;2022-08-03T06:35:06;28.20;92.00
21551;DHT22;10936;49.836;7.078;2022-08-03T06:37:44;28.20;92.10
21551;DHT22;10936;49.836;7.078;2022-08-03T06:40:12;28.20;92.10
21551;DHT22;10936;49.836;7.078;2022-08-03T06:42:39;28.30;92.20
21551;DHT22;10936;49.836;7.078;2022-08-03T06:45:06;28.30;92.20
21551;DHT22;10936;49.836;7.078;2022-08-03T06:47:34;28.30;92.20
21551;DHT22;10936;49.836;7.078;2022-08-03T06:49:59;28.30;92.20
21551;DHT22;10936;49.836;7.078;2022-08-03T06:52:25;28.30;92.20
21551;DHT22;10936;49.836;7.078;2022-08-03T06:54:51;28.30;92.20
21551;DHT22;10936;49.836;7.078;2022-08-03T06:57:16;28.30;92.10
21551;DHT22;10936;49.836;7.078;2022-08-03T06:59:43;28.30;92.10
21551;DHT22;10936;49.836;7.078;2022-08-03T07:02:09;28.40;92.10
21551;DHT22;10936;49.836;7.078;2022-08-03T07:04:36;28.40;92.10
21551;DHT22;10936;49.836;7.078;2022-08-03T07:07:01;28.40;92.00
21551;DHT22;10936;49.836;7.078;2022-08-03T07:09:27;28.40;92.00
21551;DHT22;10936;49.836;7.078;2022-08-03T07:11:53;28.40;91.90
21551;DHT22;10936;49.836;7.078;2022-08-03T07:14:20;28.40;92.00
21551;DHT22;10936;49.836;7.078;2022-08-03T07:16:46;28.40;92.00
21551;DHT22;10936;49.836;7.078;2022-08-03T07:19:11;28.40;92.00
21551;DHT22;10936;49.836;7.078;2022-08-03T07:21:37;28.50;92.00
21551;DHT22;10936;49.836;7.078;2022-08-03T07:24:03;28.50;91.90
21551;DHT22;10936;49.836;7.078;2022-08-03T07:26:29;28.50;91.90
21551;DHT22;10936;49.836;7.078;2022-08-03T07:28:54;28.50;91.80
21551;DHT22;10936;49.836;7.078;2022-08-03T07:31:20;28.50;91.80
21551;DHT22;10936;49.836;7.078;2022-08-03T07:33:45;28.50;91.70
21551;DHT22;10936;49.836;7.078;2022-08-03T07:36:11;28.50;91.70
21551;DHT22;10936;49.836;7.078;2022-08-03T07:38:37;28.50;91.60
21551;DHT22;10936;49.836;7.078;2022-08-03T07:41:02;28.50;91.60
21551;DHT22;10936;49.836;7.078;2022-08-03T07:43:28;28.50;91.60
21551;DHT22;10936;49.836;7.078;2022-08-03T07:45:54;28.50;91.50
21551;DHT22;10936;49.836;7.078;2022-08-03T07:48:19;28.50;91.50
21551;DHT22;10936;49.836;7.078;2022-08-03T07:50:45;28.50;91.50
21551;DHT22;10936;49.836;7.078;2022-08-03T07:53:11;28.50;91.40
21551;DHT22;10936;49.836;7.078;2022-08-03T07:55:36;28.50;91.40
21551;DHT22;10936;49.836;7.078;2022-08-03T07:58:03;28.50;91.40
21551;DHT22;10936;49.836;7.078;2022-08-03T08:00:29;28.50;91.40
21551;DHT22;10936;49.836;7.078;2022-08-03T08:02:55;28.60;91.40
21551;DHT22;10936;49.836;7.078;2022-08-03T08:05:21;28.60;91.40
21551;DHT22;10936;49.836;7.078;2022-08-03T08:07:46;28.50;91.30
21551;DHT22;10936;49.836;7.078;2022-08-03T08:10:12;28.60;91.40
21551;DHT22;10936;49.836;7.078;2022-08-03T08:12:38;28.60;91.30
21551;DHT22;10936;49.836;7.078;2022-08-03T08:15:05;28.60;91.30
21551;DHT22;10936;49.836;7.078;2022-08-03T08:17:44;28.60;91.30
21551;DHT22;10936;49.836;7.078;2022-08-03T08:20:11;28.60;91.30
21551;DHT22;10936;49.836;7.078;2022-08-03T08:22:37;28.60;91.30
21551;DHT22;10936;49.836;7.078;2022-08-03T08:25:02;28.70;91.40
21551;DHT22;10936;49.836;7.078;2022-08-03T08:27:28;28.70;91.40
21551;DHT22;10936;49.836;7.078;2022-08-03T08:29:54;28.70;91.30
21551;DHT22;10936;49.836;7.078;2022-08-03T08:32:19;28.70;91.30
21551;DHT22;10936;49.836;7.078;2022-08-03T08:34:45;28.70;91.30
21551;DHT22;10936;49.836;7.078;2022-08-03T08:37:10;28.70;91.20
21551;DHT22;10936;49.836;7.078;2022-08-03T08:39:36;28.70;91.20
21551;DHT22;10936;49.836;7.078;2022-08-03T08:42:02;28.70;91.20
21551;DHT22;10936;49.836;7.078;2022-08-03T08:44:28;28.70;91.20
21551;DHT22;10936;49.836;7.078;2022-08-03T08:46:55;28.70;91.20
21551;DHT22;10936;49.836;7.078;2022-08-03T08:49:22;28.70;91.20
21551;DHT22;10936;49.836;7.078;2022-08-03T08:51:53;28.80;91.20
21551;DHT22;10936;49.836;7.078;2022-08-03T08:54:20;28.80;91.20
21551;DHT22;10936;49.836;7.078;2022-08-03T08:56:49;28.80;91.20
21551;DHT22;10936;49.836;7.078;2022-08-03T08:59:15;28.80;91.20
21551;DHT22;10936;49.836;7.078;2022-08-03T09:01:41;28.80;91.20
21551;DHT22;10936;49.836;7.078;2022-08-03T09:04:07;28.80;91.20
21551;DHT22;10936;49.836;7.078;2022-08-03T09:06:34;28.90;91.20
21551;DHT22;10936;49.836;7.078;2022-08-03T09:09:00;28.80;91.10
21551;DHT22;10936;49.836;7.078;2022-08-03T09:11:25;28.90;91.20
21551;DHT22;10936;49.836;7.078;2022-08-03T09:13:51;28.90;91.20
21551;DHT22;10936;49.836;7.078;2022-08-03T09:16:21;28.90;91.30
21551;DHT22;10936;49.836;7.078;2022-08-03T09:18:52;28.90;91.10
21551;DHT22;10936;49.836;7.078;2022-08-03T09:21:23;28.90;91.10
21551;DHT22;10936;49.836;7.078;2022-08-03T09:23:52;28.90;91.00
21551;DHT22;10936;49.836;7.078;2022-08-03T09:26:29;28.90;91.10
21551;DHT22;10936;49.836;7.078;2022-08-03T09:29:06;28.90;91.00
21551;DHT22;10936;49.836;7.078;2022-08-03T09:31:40;28.90;91.00
21551;DHT22;10936;49.836;7.078;2022-08-03T09:34:08;28.90;91.00
21551;DHT22;10936;49.836;7.078;2022-08-03T09:36:43;28.90;91.00
21551;DHT22;10936;49.836;7.078;2022-08-03T09:39:16;29.00;91.10
21551;DHT22;10936;49.836;7.078;2022-08-03T09:41:46;28.90;91.40
21551;DHT22;10936;49.836;7.078;2022-08-03T09:44:12;29.00;91.00
21551;DHT22;10936;49.836;7.078;2022-08-03T09:46:52;29.00;91.00
21551;DHT22;10936;49.836;7.078;2022-08-03T09:49:18;29.00;91.00
21551;DHT22;10936;49.836;7.078;2022-08-03T09:51:44;29.00;91.00
21551;DHT22;10936;49.836;7.078;2022-08-03T09:54:10;29.00;91.00
21551;DHT22;10936;49.836;7.078;2022-08-03T09:56:46;29.00;91.00
21551;DHT22;10936;49.836;7.078;2022-08-03T09:59:21;29.00;90.90
21551;DHT22;10936;49.836;7.078;2022-08-03T10:01:47;29.00;90.90
21551;DHT22;10936;49.836;7.078;2022-08-03T10:04:14;29.00;90.90
21551;DHT22;10936;49.836;7.078;2022-08-03T10:06:49;29.10;90.90
21551;DHT22;10936;49.836;7.078;2022-08-03T10:09:25;29.10;90.90
21551;DHT22;10936;49.836;7.078;2022-08-03T10:11:51;29.10;90.80
21551;DHT22;10936;49.836;7.078;2022-08-03T10:14:17;29.10;90.90
21551;DHT22;10936;49.836;7.078;2022-08-03T10:16:48;29.10;90.80
21551;DHT22;10936;49.836;7.078;2022-08-03T10:19:14;29.20;90.80
21551;DHT22;10936;49.836;7.078;2022-08-03T10:21:55;29.20;90.80
21551;DHT22;10936;49.836;7.078;2022-08-03T10:24:25;29.20;90.80
21551;DHT22;10936;49.836;7.078;2022-08-03T10:27:06;29.20;90.70
21551;DHT22;10936;49.836;7.078;2022-08-03T10:29:55;29.20;90.60
21551;DHT22;10936;49.836;7.078;2022-08-03T10:32:27;29.20;90.70
21551;DHT22;10936;49.836;7.078;2022-08-03T10:35:07;29.20;90.70
21551;DHT22;10936;49.836;7.078;2022-08-03T10:37:59;29.20;90.70
21551;DHT22;10936;49.836;7.078;2022-08-03T10:40:26;29.20;90.80
21551;DHT22;10936;49.836;7.078;2022-08-03T10:42:55;29.20;90.80
21551;DHT22;10936;49.836;7.078;2022-08-03T10:45:26;29.20;90.80
21551;DHT22;10936;49.836;7.078;2022-08-03T10:47:53;29.20;90.80
21551;DHT22;10936;49.836;7.078;2022-08-03T10:50:20;29.30;90.80
21551;DHT22;10936;49.836;7.078;2022-08-03T10:53:03;29.20;90.80
21551;DHT22;10936;49.836;7.078;2022-08-03T10:55:36;29.20;90.80
21551;DHT22;10936;49.836;7.078;2022-08-03T11:01:09;29.30;90.90
21551;DHT22;10936;49.836;7.078;2022-08-03T11:06:23;29.30;90.90
21551;DHT22;10936;49.836;7.078;2022-08-03T11:11:44;29.30;90.90
21551;DHT22;10936;49.836;7.078;2022-08-03T11:14:18;29.30;90.90
21551;DHT22;10936;49.836;7.078;2022-08-03T11:16:50;29.30;90.90
21551;DHT22;10936;49.836;7.078;2022-08-03T11:19:43;29.30;90.90
21551;DHT22;10936;49.836;7.078;2022-08-03T11:22:09;29.30;90.90
21551;DHT22;10936;49.836;7.078;2022-08-03T11:30:16;29.30;90.90
21551;DHT22;10936;49.836;7.078;2022-08-03T11:32:51;29.30;90.90
21551;DHT22;10936;49.836;7.078;2022-08-03T11:43:06;29.40;90.90
21551;DHT22;10936;49.836;7.078;2022-08-03T11:45:33;29.40;90.90
21551;DHT22;10936;49.836;7.078;2022-08-03T11:48:14;29.40;90.90
21551;DHT22;10936;49.836;7.078;2022-08-03T11:50:41;29.40;90.90
21551;DHT22;10936;49.836;7.078;2022-08-03T11:53:17;29.40;90.90
21551;DHT22;10936;49.836;7.078;2022-08-03T11:55:44;29.40;90.90
21551;DHT22;10936;49.836;7.078;2022-08-03T11:58:22;29.40;90.90
21551;DHT22;10936;49.836;7.078;2022-08-03T12:00:49;29.40;90.90
21551;DHT22;10936;49.836;7.078;2022-08-03T12:03:17;29.40;90.90
21551;DHT22;10936;49.836;7.078;2022-08-03T12:05:48;29.40;90.90
21551;DHT22;10936;49.836;7.078;2022-08-03T12:08:37;29.50;91.30
21551;DHT22;10936;49.836;7.078;2022-08-03T12:11:03;29.50;90.90
21551;DHT22;10936;49.836;7.078;2022-08-03T12:16:06;29.50;90.90
21551;DHT22;10936;49.836;7.078;2022-08-03T12:18:33;29.50;90.90
21551;DHT22;10936;49.836;7.078;2022-08-03T12:21:05;29.50;90.90
21551;DHT22;10936;49.836;7.078;2022-08-03T12:23:31;29.50;90.90
21551;DHT22;10936;49.836;7.078;2022-08-03T12:26:05;29.50;90.90
21551;DHT22;10936;49.836;7.078;2022-08-03T12:28:31;29.50;90.90
21551;DHT22;10936;49.836;7.078;2022-08-03T12:31:04;29.50;90.90
21551;DHT22;10936;49.836;7.078;2022-08-03T12:33:58;29.50;90.90
21551;DHT22;10936;49.836;7.078;2022-08-03T12:36:26;29.50;90.80
21551;DHT22;10936;49.836;7.078;2022-08-03T12:39:00;29.50;90.90
21551;DHT22;10936;49.836;7.078;2022-08-03T12:41:37;29.50;90.90
21551;DHT22;10936;49.836;7.078;2022-08-03T12:44:04;29.60;90.90
21551;DHT22;10936;49.836;7.078;2022-08-03T12:46:39;29.60;90.90
21551;DHT22;10936;49.836;7.078;2022-08-03T12:49:10;29.50;90.80
21551;DHT22;10936;49.836;7.078;2022-08-03T12:54:14;29.60;90.90
21551;DHT22;10936;49.836;7.078;2022-08-03T12:57:00;29.60;90.90
21551;DHT22;10936;49.836;7.078;2022-08-03T12:59:31;29.60;90.90
21551;DHT22;10936;49.836;7.078;2022-08-03T13:01:57;29.60;90.90
21551;DHT22;10936;49.836;7.078;2022-08-03T13:04:34;29.60;90.90
21551;DHT22;10936;49.836;7.078;2022-08-03T13:07:04;29.60;90.90
21551;DHT22;10936;49.836;7.078;2022-08-03T13:12:16;29.60;91.20
21551;DHT22;10936;49.836;7.078;2022-08-03T13:14:44;29.60;90.80
21551;DHT22;10936;49.836;7.078;2022-08-03T13:17:10;29.60;90.80
21551;DHT22;10936;49.836;7.078;2022-08-03T13:19:37;29.60;90.80
21551;DHT22;10936;49.836;7.078;2022-08-03T13:22:23;29.60;90.80
21551;DHT22;10936;49.836;7.078;2022-08-03T13:24:51;29.70;90.80
21551;DHT22;10936;49.836;7.078;2022-08-03T13:27:17;29.60;90.80
21551;DHT22;10936;49.836;7.078;2022-08-03T13:29:42;29.70;90.80
21551;DHT22;10936;49.836;7.078;2022-08-03T13:32:09;29.70;90.80
21551;DHT22;10936;49.836;7.078;2022-08-03T13:34:35;29.70;90.80
21551;DHT22;10936;49.836;7.078;2022-08-03T13:37:00;29.70;90.80
21551;DHT22;10936;49.836;7.078;2022-08-03T13:39:26;29.70;90.80
21551;DHT22;10936;49.836;7.078;2022-08-03T13:41:52;29.70;90.80
21551;DHT22;10936;49.836;7.078;2022-08-03T13:44:18;29.70;90.80
21551;DHT22;10936;49.836;7.078;2022-08-03T13:46:44;29.70;90.80
21551;DHT22;10936;49.836;7.078;2022-08-03T13:49:10;29.70;90.80
21551;DHT22;10936;49.836;7.078;2022-08-03T13:51:36;29.70;90.80
21551;DHT22;10936;49.836;7.078;2022-08-03T13:54:02;29.70;90.80
21551;DHT22;10936;49.836;7.078;2022-08-03T13:56:29;29.80;90.90
21551;DHT22;10936;49.836;7.078;2022-08-03T13:58:55;29.80;90.90
21551;DHT22;10936;49.836;7.078;2022-08-03T14:01:21;29.70;90.80
21551;DHT22;10936;49.836;7.078;2022-08-03T14:03:47;29.80;90.90
21551;DHT22;10936;49.836;7.078;2022-08-03T14:06:17;29.80;90.90
21551;DHT22;10936;49.836;7.078;2022-08-03T14:08:43;29.80;90.90
21551;DHT22;10936;49.836;7.078;2022-08-03T14:11:09;29.80;90.90
21551;DHT22;10936;49.836;7.078;2022-08-03T14:13:35;29.80;90.90
21551;DHT22;10936;49.836;7.078;2022-08-03T14:16:01;29.80;91.00
21551;DHT22;10936;49.836;7.078;2022-08-03T14:18:27;29.80;91.00
21551;DHT22;10936;49.836;7.078;2022-08-03T14:20:52;29.80;91.00
21551;DHT22;10936;49.836;7.078;2022-08-03T14:23:18;29.90;91.00
21551;DHT22;10936;49.836;7.078;2022-08-03T14:25:44;29.80;91.30
21551;DHT22;10936;49.836;7.078;2022-08-03T14:28:10;29.90;91.00
21551;DHT22;10936;49.836;7.078;2022-08-03T14:30:35;29.90;91.00
21551;DHT22;10936;49.836;7.078;2022-08-03T14:33:01;29.90;90.90
21551;DHT22;10936;49.836;7.078;2022-08-03T14:35:27;29.90;90.90
21551;DHT22;10936;49.836;7.078;2022-08-03T14:37:52;29.90;90.90
21551;DHT22;10936;49.836;7.078;2022-08-03T14:40:19;29.90;90.90
21551;DHT22;10936;49.836;7.078;2022-08-03T14:42:44;30.00;90.90
21551;DHT22;10936;49.836;7.078;2022-08-03T14:45:10;30.00;90.90
21551;DHT22;10936;49.836;7.078;2022-08-03T14:47:37;29.90;90.90
21551;DHT22;10936;49.836;7.078;2022-08-03T14:50:04;30.00;91.20
21551;DHT22;10936;49.836;7.078;2022-08-03T14:52:30;30.00;90.90
21551;DHT22;10936;49.836;7.078;2022-08-03T14:54:57;30.00;90.90
21551;DHT22;10936;49.836;7.078;2022-08-03T14:57:22;30.00;90.90
21551;DHT22;10936;49.836;7.078;2022-08-03T14:59:48;30.00;90.90
21551;DHT22;10936;49.836;7.078;2022-08-03T15:02:13;30.00;90.90
21551;DHT22;10936;49.836;7.078;2022-08-03T15:04:39;30.00;90.90
21551;DHT22;10936;49.836;7.078;2022-08-03T15:07:05;30.00;90.90
21551;DHT22;10936;49.836;7.078;2022-08-03T15:09:31;30.00;90.90
21551;DHT22;10936;49.836;7.078;2022-08-03T15:11:56;30.00;90.90
21551;DHT22;10936;49.836;7.078;2022-08-03T15:14:23;30.00;90.90
21551;DHT22;10936;49.836;7.078;2022-08-03T15:16:49;30.00;90.90
21551;DHT22;10936;49.836;7.078;2022-08-03T15:19:14;30.10;91.00
21551;DHT22;10936;49.836;7.078;2022-08-03T15:21:40;30.00;91.00
21551;DHT22;10936;49.836;7.078;2022-08-03T15:24:06;30.00;91.00
21551;DHT22;10936;49.836;7.078;2022-08-03T15:26:32;30.00;91.00
21551;DHT22;10936;49.836;7.078;2022-08-03T15:28:57;30.00;91.00
21551;DHT22;10936;49.836;7.078;2022-08-03T15:31:24;30.10;91.00
21551;DHT22;10936;49.836;7.078;2022-08-03T15:33:50;30.10;91.10
21551;DHT22;10936;49.836;7.078;2022-08-03T15:36:17;30.10;91.10
21551;DHT22;10936;49.836;7.078;2022-08-03T15:38:43;30.10;91.10
21551;DHT22;10936;49.836;7.078;2022-08-03T15:41:10;30.10;91.10
21551;DHT22;10936;49.836;7.078;2022-08-03T15:43:36;30.10;91.10
21551;DHT22;10936;49.836;7.078;2022-08-03T15:46:01;30.10;91.10
21551;DHT22;10936;49.836;7.078;2022-08-03T15:48:27;30.10;91.10
21551;DHT22;10936;49.836;7.078;2022-08-03T15:50:53;30.10;91.20
21551;DHT22;10936;49.836;7.078;2022-08-03T15:53:20;30.10;91.20
21551;DHT22;10936;49.836;7.078;2022-08-03T15:55:45;30.10;91.20
21551;DHT22;10936;49.836;7.078;2022-08-03T15:58:12;30.10;91.20
21551;DHT22;10936;49.836;7.078;2022-08-03T16:00:38;30.10;91.20
21551;DHT22;10936;49.836;7.078;2022-08-03T16:03:04;30.10;91.20
21551;DHT22;10936;49.836;7.078;2022-08-03T16:05:30;30.10;91.20
21551;DHT22;10936;49.836;7.078;2022-08-03T16:07:56;30.10;91.20
21551;DHT22;10936;49.836;7.078;2022-08-03T16:10:22;30.10;91.20
21551;DHT22;10936;49.836;7.078;2022-08-03T16:12:47;30.10;91.20
21551;DHT22;10936;49.836;7.078;2022-08-03T16:15:14;30.10;91.20
21551;DHT22;10936;49.836;7.078;2022-08-03T16:17:40;30.10;91.20
21551;DHT22;10936;49.836;7.078;2022-08-03T16:20:08;30.10;91.20
21551;DHT22;10936;49.836;7.078;2022-08-03T16:22:43;30.10;91.20
21551;DHT22;10936;49.836;7.078;2022-08-03T16:25:10;30.10;91.20
21551;DHT22;10936;49.836;7.078;2022-08-03T16:27:36;30.10;91.30
21551;DHT22;10936;49.836;7.078;2022-08-03T16:30:03;30.10;91.20
21551;DHT22;10936;49.836;7.078;2022-08-03T16:32:28;30.10;91.20
21551;DHT22;10936;49.836;7.078;2022-08-03T16:34:54;30.10;91.20
21551;DHT22;10936;49.836;7.078;2022-08-03T16:37:20;30.10;91.20
21551;DHT22;10936;49.836;7.078;2022-08-03T16:39:45;30.10;91.20
21551;DHT22;10936;49.836;7.078;2022-08-03T16:42:11;30.10;91.20
21551;DHT22;10936;49.836;7.078;2022-08-03T16:44:36;30.10;91.20
21551;DHT22;10936;49.836;7.078;2022-08-03T16:47:02;30.10;91.20
21551;DHT22;10936;49.836;7.078;2022-08-03T16:49:28;30.10;91.20
21551;DHT22;10936;49.836;7.078;2022-08-03T16:51:53;30.00;91.20
21551;DHT22;10936;49.836;7.078;2022-08-03T16:54:19;30.10;91.20
21551;DHT22;10936;49.836;7.078;2022-08-03T16:56:46;30.10;91.20
21551;DHT22;10936;49.836;7.078;2022-08-03T16:59:12;30.10;91.20
21551;DHT22;10936;49.836;7.078;2022-08-03T17:01:38;30.10;91.20
21551;DHT22;10936;49.836;7.078;2022-08-03T17:04:04;30.10;91.20
21551;DHT22;10936;49.836;7.078;2022-08-03T17:06:35;30.10;91.30
21551;DHT22;10936;49.836;7.078;2022-08-03T17:09:09;30.10;91.30
21551;DHT22;10936;49.836;7.078;2022-08-03T17:11:39;30.10;91.20
21551;DHT22;10936;49.836;7.078;2022-08-03T17:14:06;30.10;91.20
21551;DHT22;10936;49.836;7.078;2022-08-03T17:16:31;30.10;91.30
21551;DHT22;10936;49.836;7.078;2022-08-03T17:19:00;30.10;91.20
21551;DHT22;10936;49.836;7.078;2022-08-03T17:21:29;30.10;91.20
21551;DHT22;10936;49.836;7.078;2022-08-03T17:24:09;30.10;91.20
21551;DHT22;10936;49.836;7.078;2022-08-03T17:26:41;30.10;91.20
21551;DHT22;10936;49.836;7.078;2022-08-03T17:29:08;30.10;91.20
21551;DHT22;10936;49.836;7.078;2022-08-03T17:31:36;30.10;91.20
21551;DHT22;10936;49.836;7.078;2022-08-03T17:34:02;30.10;91.30
21551;DHT22;10936;49.836;7.078;2022-08-03T17:36:28;30.10;91.30
21551;DHT22;10936;49.836;7.078;2022-08-03T17:38:54;30.10;91.30
21551;DHT22;10936;49.836;7.078;2022-08-03T17:41:21;30.10;91.30
21551;DHT22;10936;49.836;7.078;2022-08-03T17:43:48;30.10;91.30
21551;DHT22;10936;49.836;7.078;2022-08-03T17:46:19;30.10;91.30
21551;DHT22;10936;49.836;7.078;2022-08-03T17:48:47;30.10;91.30
21551;DHT22;10936;49.836;7.078;2022-08-03T17:51:32;30.10;91.30
21551;DHT22;10936;49.836;7.078;2022-08-03T17:54:24;30.10;91.30
21551;DHT22;10936;49.836;7.078;2022-08-03T17:57:02;30.10;91.40
21551;DHT22;10936;49.836;7.078;2022-08-03T17:59:37;30.10;91.40
21551;DHT22;10936;49.836;7.078;2022-08-03T18:05:08;30.10;91.40
21551;DHT22;10936;49.836;7.078;2022-08-03T18:07:42;30.10;91.40
21551;DHT22;10936;49.836;7.078;2022-08-03T18:10:11;30.10;91.40
21551;DHT22;10936;49.836;7.078;2022-08-03T18:12:53;30.00;91.40
21551;DHT22;10936;49.836;7.078;2022-08-03T18:15:38;30.10;91.40
21551;DHT22;10936;49.836;7.078;2022-08-03T18:18:06;30.10;91.40
21551;DHT22;10936;49.836;7.078;2022-08-03T18:20:33;30.10;91.50
21551;DHT22;10936;49.836;7.078;2022-08-03T18:22:59;30.00;91.40
21551;DHT22;10936;49.836;7.078;2022-08-03T18:25:26;30.00;91.40
21551;DHT22;10936;49.836;7.078;2022-08-03T18:27:53;30.00;91.40
21551;DHT22;10936;49.836;7.078;2022-08-03T18:30:19;30.00;91.50
21551;DHT22;10936;49.836;7.078;2022-08-03T18:32:45;30.00;91.50
21551;DHT22;10936;49.836;7.078;2022-08-03T18:35:11;30.00;91.90
21551;DHT22;10936;49.836;7.078;2022-08-03T18:37:38;30.00;91.50
21551;DHT22;10936;49.836;7.078;2022-08-03T18:40:05;30.00;91.60
21551;DHT22;10936;49.836;7.078;2022-08-03T18:42:31;30.00;91.60
21551;DHT22;10936;49.836;7.078;2022-08-03T18:44:58;30.00;91.70
21551;DHT22;10936;49.836;7.078;2022-08-03T18:53:06;30.00;91.70
21551;DHT22;10936;49.836;7.078;2022-08-03T18:55:37;30.00;91.70
21551;DHT22;10936;49.836;7.078;2022-08-03T19:00:40;30.00;91.70
21551;DHT22;10936;49.836;7.078;2022-08-03T19:03:08;30.00;91.70
21551;DHT22;10936;49.836;7.078;2022-08-03T19:05:58;30.00;91.70
21551;DHT22;10936;49.836;7.078;2022-08-03T19:08:35;30.00;91.80
21551;DHT22;10936;49.836;7.078;2022-08-03T19:11:06;30.00;91.70
21551;DHT22;10936;49.836;7.078;2022-08-03T19:13:42;30.00;91.70
21551;DHT22;10936;49.836;7.078;2022-08-03T19:16:16;29.90;91.70
21551;DHT22;10936;49.836;7.078;2022-08-03T19:18:47;29.90;91.70
21551;DHT22;10936;49.836;7.078;2022-08-03T19:21:14;29.90;91.50
21551;DHT22;10936;49.836;7.078;2022-08-03T19:23:45;29.90;91.50
21551;DHT22;10936;49.836;7.078;2022-08-03T19:26:11;29.90;91.50
21551;DHT22;10936;49.836;7.078;2022-08-03T19:28:39;29.90;91.50
21551;DHT22;10936;49.836;7.078;2022-08-03T19:31:05;29.80;91.50
21551;DHT22;10936;49.836;7.078;2022-08-03T19:33:33;29.80;91.50
21551;DHT22;10936;49.836;7.078;2022-08-03T19:35:59;29.90;91.50
21551;DHT22;10936;49.836;7.078;2022-08-03T19:38:25;29.80;91.50
21551;DHT22;10936;49.836;7.078;2022-08-03T19:40:52;29.80;91.50
21551;DHT22;10936;49.836;7.078;2022-08-03T19:43:35;29.80;91.40
21551;DHT22;10936;49.836;7.078;2022-08-03T19:46:09;29.90;91.40
21551;DHT22;10936;49.836;7.078;2022-08-03T19:48:37;29.80;91.30
21551;DHT22;10936;49.836;7.078;2022-08-03T19:51:07;29.80;91.60
21551;DHT22;10936;49.836;7.078;2022-08-03T19:53:34;29.80;91.20
21551;DHT22;10936;49.836;7.078;2022-08-03T19:56:04;29.80;91.20
21551;DHT22;10936;49.836;7.078;2022-08-03T19:58:32;29.80;91.20
21551;DHT22;10936;49.836;7.078;2022-08-03T20:00:58;29.80;91.20
21551;DHT22;10936;49.836;7.078;2022-08-03T20:03:27;29.80;91.20
21551;DHT22;10936;49.836;7.078;2022-08-03T20:05:55;29.80;91.20
21551;DHT22;10936;49.836;7.078;2022-08-03T20:08:21;29.80;91.20
21551;DHT22;10936;49.836;7.078;2022-08-03T20:10:48;29.80;91.20
21551;DHT22;10936;49.836;7.078;2022-08-03T20:13:14;29.80;91.20
21551;DHT22;10936;49.836;7.078;2022-08-03T20:15:40;29.80;91.20
21551;DHT22;10936;49.836;7.078;2022-08-03T20:18:06;29.80;91.10
21551;DHT22;10936;49.836;7.078;2022-08-03T20:20:34;29.70;91.10
21551;DHT22;10936;49.836;7.078;2022-08-03T20:23:05;29.80;91.20
21551;DHT22;10936;49.836;7.078;2022-08-03T20:25:37;29.70;91.10
21551;DHT22;10936;49.836;7.078;2022-08-03T20:28:11;29.70;91.10
21551;DHT22;10936;49.836;7.078;2022-08-03T20:30:38;29.70;91.10
21551;DHT22;10936;49.836;7.078;2022-08-03T20:33:03;29.70;91.10
21551;DHT22;10936;49.836;7.078;2022-08-03T20:35:29;29.70;91.10
21551;DHT22;10936;49.836;7.078;2022-08-03T20:37:55;29.70;91.10
21551;DHT22;10936;49.836;7.078;2022-08-03T20:40:21;29.70;91.10
21551;DHT22;10936;49.836;7.078;2022-08-03T20:42:47;29.70;91.10
21551;DHT22;10936;49.836;7.078;2022-08-03T20:45:13;29.70;91.10
21551;DHT22;10936;49.836;7.078;2022-08-03T20:47:42;29.60;91.10
21551;DHT22;10936;49.836;7.078;2022-08-03T20:50:08;29.60;91.10
21551;DHT22;10936;49.836;7.078;2022-08-03T20:52:35;29.70;91.10
21551;DHT22;10936;49.836;7.078;2022-08-03T20:55:05;29.70;91.10
21551;DHT22;10936;49.836;7.078;2022-08-03T20:57:32;29.70;91.10
21551;DHT22;10936;49.836;7.078;2022-08-03T20:59:59;29.60;91.00
21551;DHT22;10936;49.836;7.078;2022-08-03T21:02:25;29.60;91.00
21551;DHT22;10936;49.836;7.078;2022-08-03T21:04:51;29.60;91.00
21551;DHT22;10936;49.836;7.078;2022-08-03T21:07:19;29.60;91.00
21551;DHT22;10936;49.836;7.078;2022-08-03T21:09:52;29.70;91.00
21551;DHT22;10936;49.836;7.078;2022-08-03T21:15:15;29.60;90.90
21551;DHT22;10936;49.836;7.078;2022-08-03T21:17:44;29.60;91.00
21551;DHT22;10936;49.836;7.078;2022-08-03T21:20:11;29.60;90.90
21551;DHT22;10936;49.836;7.078;2022-08-03T21:22:42;29.60;90.90